createdAt,value
2018-10-18T00:01:55.398Z,19.13
2018-10-18T00:04:23.655Z,19.00
2018-10-18T00:06:51.971Z,18.97
2018-10-18T00:09:20.236Z,15.50
2018-10-18T00:11:48.512Z,19.13
2018-10-18T00:14:16.983Z,20.20
2018-10-18T00:16:45.137Z,21.67
2018-10-18T00:19:13.424Z,21.43
2018-10-18T00:21:41.731Z,22.90
2018-10-18T00:24:10.067Z,20.57
2018-10-18T00:26:38.283Z,19.77
2018-10-18T00:29:06.547Z,20.73
2018-10-18T00:31:34.831Z,21.77
2018-10-18T00:34:03.095Z,22.37
2018-10-18T00:36:31.406Z,22.70
2018-10-18T00:39:00.395Z,24.27
2018-10-18T00:41:28.682Z,25.30
2018-10-18T00:43:56.981Z,22.90
2018-10-18T00:46:25.276Z,26.27
2018-10-18T00:48:53.548Z,27.13
2018-10-18T00:51:21.963Z,28.73
2018-10-18T00:53:50.239Z,30.20
2018-10-18T00:56:18.500Z,33.27
2018-10-18T00:58:46.785Z,30.47
2018-10-18T01:01:15.043Z,34.40
2018-10-18T01:03:43.680Z,31.43
2018-10-18T01:06:12.059Z,31.97
2018-10-18T01:08:40.891Z,32.43
2018-10-18T01:11:09.170Z,34.70
2018-10-18T01:13:37.611Z,37.50
2018-10-18T01:16:06.079Z,36.10
2018-10-18T01:18:34.368Z,37.10
2018-10-18T01:21:02.651Z,35.50
2018-10-18T01:23:30.940Z,35.10
2018-10-18T01:25:59.570Z,31.47
2018-10-18T01:28:27.815Z,31.63
2018-10-18T01:30:56.087Z,30.73
2018-10-18T01:33:24.379Z,34.67
2018-10-18T01:35:52.672Z,35.20
2018-10-18T01:38:20.991Z,29.67
2018-10-18T01:40:49.275Z,32.33
2018-10-18T01:43:17.723Z,34.80
2018-10-18T01:45:45.999Z,39.17
2018-10-18T01:48:14.321Z,39.47
2018-10-18T01:50:42.611Z,42.63
2018-10-18T01:53:10.903Z,38.40
2018-10-18T01:55:39.176Z,43.93
2018-10-18T01:58:07.468Z,41.20
2018-10-18T02:00:36.466Z,44.03
2018-10-18T02:03:04.797Z,39.40
2018-10-18T02:05:33.051Z,40.33
2018-10-18T02:08:01.390Z,41.80
2018-10-18T02:10:29.636Z,42.30
2018-10-18T02:12:57.921Z,46.03
2018-10-18T02:15:26.215Z,45.00
2018-10-18T02:17:54.534Z,48.97
2018-10-18T02:20:22.794Z,46.80
2018-10-18T02:22:51.063Z,51.20
2018-10-18T02:25:19.443Z,48.73
2018-10-18T02:27:47.635Z,49.60
2018-10-18T02:30:16.062Z,46.37
2018-10-18T02:32:44.201Z,49.77
2018-10-18T02:35:12.702Z,51.70
2018-10-18T02:37:41.369Z,56.10
2018-10-18T02:40:09.707Z,49.83
2018-10-18T02:42:37.978Z,54.17
2018-10-18T02:45:06.318Z,50.73
2018-10-18T02:47:34.593Z,54.23
2018-10-18T02:50:02.876Z,51.20
2018-10-18T02:52:34.138Z,47.00
2018-10-18T02:55:02.435Z,48.63
2018-10-18T02:57:30.707Z,53.20
2018-10-18T02:59:58.994Z,57.87
2018-10-18T03:02:27.282Z,58.77
2018-10-18T03:04:55.563Z,59.27
2018-10-18T03:07:23.839Z,57.13
2018-10-18T03:09:52.125Z,58.57
2018-10-18T03:12:20.472Z,55.87
2018-10-18T03:14:48.694Z,60.50
2018-10-18T03:17:16.960Z,57.57
2018-10-18T03:19:45.428Z,56.13
2018-10-18T03:22:13.679Z,51.00
2018-10-18T03:24:41.972Z,51.70
2018-10-18T03:27:10.244Z,49.60
2018-10-18T03:29:38.544Z,51.77
2018-10-18T03:32:06.827Z,50.70
2018-10-18T03:34:35.104Z,50.93
2018-10-18T03:37:03.389Z,44.53
2018-10-18T03:39:31.671Z,52.00
2018-10-18T03:41:59.952Z,44.30
2018-10-18T03:44:28.681Z,45.70
2018-10-18T03:46:56.952Z,48.93
2018-10-18T03:49:25.293Z,46.57
2018-10-18T03:51:53.576Z,42.83
2018-10-18T03:54:21.844Z,46.27
2018-10-18T03:56:50.123Z,56.10
2018-10-18T03:59:18.408Z,47.90
2018-10-18T04:01:46.684Z,41.97
2018-10-18T04:04:14.960Z,42.80
2018-10-18T04:06:43.240Z,46.83
2018-10-18T04:09:11.515Z,40.50
2018-10-18T04:11:40.783Z,44.63
2018-10-18T04:14:09.159Z,48.70
2018-10-18T04:16:37.460Z,56.97
2018-10-18T04:19:06.052Z,61.90
2018-10-18T04:21:34.333Z,57.80
2018-10-18T04:24:02.681Z,62.53
2018-10-18T04:26:30.894Z,69.83
2018-10-18T04:28:59.181Z,69.00
2018-10-18T04:31:28.182Z,71.67
2018-10-18T04:33:56.451Z,86.90
2018-10-18T04:36:24.752Z,107.23
2018-10-18T04:38:53.040Z,102.77
2018-10-18T04:41:21.355Z,104.47
2018-10-18T04:43:49.639Z,111.50
2018-10-18T04:46:17.943Z,109.73
2018-10-18T04:48:46.214Z,106.27
2018-10-18T04:51:14.536Z,114.33
2018-10-18T04:53:42.806Z,104.93
2018-10-18T04:56:11.112Z,109.40
2018-10-18T04:58:39.402Z,107.77
2018-10-18T05:01:07.768Z,98.43
2018-10-18T05:03:36.008Z,97.17
2018-10-18T05:06:05.687Z,92.87
2018-10-18T05:08:33.951Z,94.00
2018-10-18T05:11:02.227Z,92.43
2018-10-18T05:13:30.519Z,101.13
2018-10-18T05:15:58.807Z,107.57
2018-10-18T05:18:27.133Z,95.40
2018-10-18T05:20:55.407Z,97.07
2018-10-18T05:23:23.699Z,105.30
2018-10-18T05:25:52.155Z,104.80
2018-10-18T05:28:20.742Z,101.37
2018-10-18T05:30:49.462Z,104.60
2018-10-18T05:33:17.758Z,100.20
2018-10-18T05:35:46.024Z,103.30
2018-10-18T05:38:14.879Z,108.17
2018-10-18T05:40:43.157Z,115.67
2018-10-18T05:43:11.538Z,122.27
2018-10-18T05:45:39.760Z,131.57
2018-10-18T05:48:08.191Z,115.83
2018-10-18T05:50:36.824Z,107.03
2018-10-18T05:53:05.782Z,126.57
2018-10-18T05:55:36.736Z,110.97
2018-10-18T05:58:05.054Z,96.97
2018-10-18T06:00:33.343Z,106.03
2018-10-18T06:03:01.628Z,121.07
2018-10-18T06:05:29.880Z,95.40
2018-10-18T06:07:58.259Z,104.17
2018-10-18T06:10:37.875Z,104.13
2018-10-18T06:13:06.139Z,100.37
2018-10-18T06:15:34.403Z,110.57
2018-10-18T06:18:02.720Z,115.97
2018-10-18T06:20:30.983Z,108.10
2018-10-18T06:22:59.429Z,107.50
2018-10-18T06:25:27.579Z,109.70
2018-10-18T06:27:55.874Z,112.43
2018-10-18T06:30:24.373Z,102.70
2018-10-18T06:32:52.724Z,105.03
2018-10-18T06:35:20.963Z,113.13
2018-10-18T06:37:49.255Z,108.90
2018-10-18T06:40:18.269Z,101.67
2018-10-18T06:42:46.739Z,102.43
2018-10-18T06:45:16.643Z,105.77
2018-10-18T06:47:45.267Z,104.93
2018-10-18T06:50:15.786Z,113.93
2018-10-18T06:52:44.098Z,108.43
2018-10-18T06:55:12.570Z,108.40
2018-10-18T06:57:41.764Z,109.40
2018-10-18T07:00:16.093Z,101.10
2018-10-18T07:02:44.803Z,110.07
2018-10-18T07:05:14.184Z,105.47
2018-10-18T07:07:42.935Z,96.00
2018-10-18T07:10:11.224Z,102.37
2018-10-18T07:12:39.991Z,92.13
2018-10-18T07:15:09.255Z,99.60
2018-10-18T07:17:38.479Z,110.20
2018-10-18T07:20:07.434Z,103.13
2018-10-18T07:22:36.199Z,101.47
2018-10-18T07:25:05.215Z,99.77
2018-10-18T07:27:33.503Z,99.97
2018-10-18T07:30:01.814Z,108.93
2018-10-18T07:32:30.089Z,102.00
2018-10-18T07:34:58.409Z,110.13
2018-10-18T07:37:26.699Z,105.93
2018-10-18T07:39:55.016Z,100.03
2018-10-18T07:42:23.335Z,103.47
2018-10-18T07:44:51.615Z,106.23
2018-10-18T07:47:20.059Z,107.50
2018-10-18T07:49:48.868Z,112.83
2018-10-18T07:52:17.131Z,118.53
2018-10-18T07:54:45.464Z,108.17
2018-10-18T07:57:13.783Z,117.33
2018-10-18T07:59:42.059Z,116.83
2018-10-18T08:02:10.343Z,110.33
2018-10-18T08:04:38.644Z,107.67
2018-10-18T08:07:06.947Z,105.13
2018-10-18T08:09:35.212Z,110.27
2018-10-18T08:12:03.499Z,102.03
2018-10-18T08:14:31.800Z,118.47
2018-10-18T08:17:00.096Z,108.23
2018-10-18T08:19:28.384Z,110.63
2018-10-18T08:21:56.664Z,109.70
2018-10-18T08:24:24.960Z,95.57
2018-10-18T08:26:53.226Z,102.63
2018-10-18T08:29:21.686Z,100.73
2018-10-18T08:31:50.015Z,100.57
2018-10-18T08:34:18.255Z,98.37
2018-10-18T08:36:46.523Z,92.40
2018-10-18T08:39:14.827Z,84.43
2018-10-18T08:41:44.171Z,98.57
2018-10-18T08:44:12.505Z,93.23
2018-10-18T08:46:40.767Z,88.73
2018-10-18T08:49:09.633Z,94.00
2018-10-18T08:51:37.828Z,97.97
2018-10-18T08:54:06.180Z,99.67
2018-10-18T08:56:34.519Z,85.50
2018-10-18T08:59:02.808Z,93.90
2018-10-18T09:01:31.111Z,87.13
2018-10-18T09:03:59.379Z,85.73
2018-10-18T09:06:27.848Z,90.13
2018-10-18T09:08:56.136Z,78.57
2018-10-18T09:11:24.439Z,79.13
2018-10-18T09:13:52.720Z,80.97
2018-10-18T09:16:21.035Z,78.00
2018-10-18T09:18:49.311Z,69.87
2018-10-18T09:21:17.601Z,70.20
2018-10-18T09:23:46.247Z,66.83
2018-10-18T09:26:14.542Z,70.37
2018-10-18T09:28:42.824Z,67.43
2018-10-18T09:31:11.202Z,72.37
2018-10-18T09:33:39.419Z,67.37
2018-10-18T09:36:07.696Z,65.77
2018-10-18T09:38:35.971Z,59.17
2018-10-18T09:41:04.290Z,59.03
2018-10-18T09:43:32.555Z,60.73
2018-10-18T09:46:00.855Z,52.43
2018-10-18T09:48:29.495Z,52.50
2018-10-18T09:50:57.790Z,53.20
2018-10-18T09:53:26.378Z,54.43
2018-10-18T09:55:54.694Z,49.83
2018-10-18T09:58:22.963Z,46.87
2018-10-18T10:00:57.389Z,47.10
2018-10-18T10:03:26.227Z,50.40
2018-10-18T10:05:54.498Z,44.77
2018-10-18T10:08:22.770Z,47.17
2018-10-18T10:10:51.063Z,42.33
2018-10-18T10:13:19.494Z,44.37
2018-10-18T10:15:47.664Z,40.63
2018-10-18T10:18:16.014Z,42.73
2018-10-18T10:20:44.287Z,41.87
2018-10-18T10:23:12.580Z,40.87
2018-10-18T10:25:40.864Z,40.67
2018-10-18T10:28:09.188Z,40.43
2018-10-18T10:30:37.461Z,41.37
2018-10-18T10:33:05.962Z,41.77
2018-10-18T10:35:34.234Z,38.63
2018-10-18T10:38:02.518Z,39.60
2018-10-18T10:40:30.807Z,39.60
2018-10-18T10:42:59.189Z,40.90
2018-10-18T10:45:27.724Z,39.33
2018-10-18T10:47:56.014Z,36.97
2018-10-18T10:50:24.298Z,35.10
2018-10-18T10:52:52.594Z,41.27
2018-10-18T10:55:20.867Z,40.07
2018-10-18T10:57:49.160Z,37.37
2018-10-18T11:00:33.238Z,39.63
2018-10-18T11:03:01.591Z,40.37
2018-10-18T11:05:29.820Z,42.80
2018-10-18T11:07:58.135Z,43.03
2018-10-18T11:10:26.406Z,43.23
2018-10-18T11:12:54.718Z,44.57
2018-10-18T11:15:22.999Z,44.13
2018-10-18T11:17:51.296Z,41.30
2018-10-18T11:20:19.711Z,43.93
2018-10-18T11:22:48.007Z,43.77
2018-10-18T11:25:16.675Z,46.60
2018-10-18T11:27:44.979Z,41.60
2018-10-18T11:30:13.386Z,44.37
2018-10-18T11:32:41.577Z,42.87
2018-10-18T11:35:09.847Z,44.10
2018-10-18T11:37:38.168Z,43.27
2018-10-18T11:40:07.004Z,45.20
2018-10-18T11:42:35.383Z,44.97
2018-10-18T11:45:03.628Z,43.73
2018-10-18T11:47:31.939Z,41.93
2018-10-18T11:50:00.247Z,40.80
2018-10-18T11:52:28.523Z,42.73
2018-10-18T11:54:56.808Z,48.33
2018-10-18T11:57:25.100Z,46.73
2018-10-18T11:59:53.386Z,42.43
2018-10-18T12:02:21.710Z,42.67
2018-10-18T12:04:49.979Z,42.13
2018-10-18T12:07:18.263Z,44.07
2018-10-18T12:09:46.555Z,43.63
2018-10-18T12:12:15.251Z,43.30
2018-10-18T12:14:43.528Z,43.40
2018-10-18T12:17:11.902Z,46.27
2018-10-18T12:19:40.119Z,45.30
2018-10-18T12:22:08.412Z,44.77
2018-10-18T12:24:36.722Z,42.30
2018-10-18T12:27:05.523Z,40.60
2018-10-18T12:29:33.931Z,44.40
2018-10-18T12:32:02.317Z,45.33
2018-10-18T12:34:30.559Z,45.87
2018-10-18T12:36:58.856Z,47.77
2018-10-18T12:39:27.191Z,54.90
2018-10-18T12:41:55.527Z,49.60
2018-10-18T12:44:23.800Z,49.13
2018-10-18T12:46:52.078Z,47.80
2018-10-18T12:49:20.413Z,51.20
2018-10-18T12:51:48.707Z,52.93
2018-10-18T12:54:17.083Z,50.43
2018-10-18T12:56:45.307Z,52.40
2018-10-18T12:59:13.734Z,53.60
2018-10-18T13:01:42.044Z,53.17
2018-10-18T13:04:10.363Z,57.63
2018-10-18T13:06:38.643Z,51.53
2018-10-18T13:09:09.247Z,53.30
2018-10-18T13:11:37.631Z,58.47
2018-10-18T13:14:06.213Z,56.47
2018-10-18T13:16:34.624Z,58.40
2018-10-18T13:19:02.951Z,55.87
2018-10-18T13:21:31.228Z,59.53
2018-10-18T13:23:59.554Z,58.03
2018-10-18T13:26:27.867Z,58.17
2018-10-18T13:28:56.210Z,55.43
2018-10-18T13:31:24.483Z,53.40
2018-10-18T13:33:52.821Z,56.40
2018-10-18T13:36:21.080Z,52.63
2018-10-18T13:38:49.392Z,50.87
2018-10-18T13:41:18.072Z,57.47
2018-10-18T13:43:46.376Z,58.80
2018-10-18T13:46:14.676Z,56.70
2018-10-18T13:48:43.342Z,55.73
2018-10-18T13:51:11.627Z,59.50
2018-10-18T13:53:42.072Z,54.90
2018-10-18T13:56:11.824Z,58.40
2018-10-18T13:58:40.175Z,58.30
2018-10-18T14:01:08.516Z,56.97
2018-10-18T14:03:39.435Z,55.23
2018-10-18T14:06:07.839Z,59.27
2018-10-18T14:08:36.216Z,61.13
2018-10-18T14:11:04.774Z,60.43
2018-10-18T14:13:33.031Z,59.83
2018-10-18T14:16:01.311Z,62.30
2018-10-18T14:18:29.620Z,63.43
2018-10-18T14:20:57.903Z,61.93
2018-10-18T14:23:26.208Z,57.53
2018-10-18T14:25:54.528Z,53.53
2018-10-18T14:28:22.783Z,53.53
2018-10-18T14:30:51.199Z,51.57
2018-10-18T14:33:19.391Z,52.30
2018-10-18T14:35:48.711Z,54.13
2018-10-18T14:38:17.020Z,55.67
2018-10-18T14:40:45.442Z,53.47
2018-10-18T14:43:13.743Z,51.53
2018-10-18T14:45:42.056Z,50.40
2018-10-18T14:48:10.380Z,47.40
2018-10-18T14:50:38.730Z,47.07
2018-10-18T14:53:07.055Z,47.33
2018-10-18T14:55:35.323Z,45.37
2018-10-18T14:58:03.888Z,43.00
2018-10-18T15:00:32.193Z,46.67
2018-10-18T15:03:00.531Z,44.00
2018-10-18T15:05:28.819Z,57.63
2018-10-18T15:07:57.768Z,43.13
2018-10-18T15:10:26.064Z,43.63
2018-10-18T15:12:54.360Z,42.00
2018-10-18T15:15:22.804Z,45.57
2018-10-18T15:17:51.074Z,40.97
2018-10-18T15:20:19.379Z,40.80
2018-10-18T15:22:47.669Z,48.13
2018-10-18T15:25:16.476Z,49.60
2018-10-18T15:27:44.821Z,42.43
2018-10-18T15:30:13.507Z,41.87
2018-10-18T15:32:41.788Z,40.33
2018-10-18T15:35:11.127Z,38.93
2018-10-18T15:37:39.928Z,40.37
2018-10-18T15:40:08.507Z,41.50
2018-10-18T15:42:36.799Z,37.50
2018-10-18T15:45:05.394Z,36.50
2018-10-18T15:47:33.727Z,37.70
2018-10-18T15:50:02.042Z,34.80
2018-10-18T15:52:30.311Z,34.60
2018-10-18T15:54:58.654Z,34.90
2018-10-18T15:57:26.915Z,32.07
2018-10-18T15:59:55.213Z,34.67
2018-10-18T16:02:23.495Z,33.47
2018-10-18T16:04:51.787Z,29.93
2018-10-18T16:07:20.066Z,30.77
2018-10-18T16:09:48.531Z,30.27
2018-10-18T16:12:16.810Z,29.33
2018-10-18T16:14:45.139Z,29.93
2018-10-18T16:17:13.499Z,30.37
2018-10-18T16:19:41.752Z,27.27
2018-10-18T16:22:10.019Z,28.40
2018-10-18T16:24:38.405Z,27.40
2018-10-18T16:27:06.730Z,27.13
2018-10-18T16:29:35.016Z,25.30
2018-10-18T16:32:03.420Z,30.47
2018-10-18T16:34:32.079Z,28.83
2018-10-18T16:37:00.620Z,26.90
2018-10-18T16:39:29.284Z,26.90
2018-10-18T16:41:57.674Z,31.50
2018-10-18T16:44:25.910Z,27.43
2018-10-18T16:46:54.226Z,28.37
2018-10-18T16:49:23.184Z,28.67
2018-10-18T16:51:52.214Z,25.43
2018-10-18T16:54:20.534Z,26.30
2018-10-18T16:56:48.828Z,25.43
2018-10-18T16:59:17.099Z,28.60
2018-10-18T17:01:45.396Z,25.93
2018-10-18T17:04:14.174Z,26.57
2018-10-18T17:06:42.605Z,25.53
2018-10-18T17:09:11.600Z,27.20
2018-10-18T17:11:39.955Z,24.03
2018-10-18T17:14:07.951Z,26.60
2018-10-18T17:16:36.271Z,28.60
2018-10-18T17:19:04.604Z,25.93
2018-10-18T17:21:32.917Z,24.80
2018-10-18T17:24:01.261Z,23.97
2018-10-18T17:26:29.592Z,24.13
2018-10-18T17:28:57.863Z,22.27
2018-10-18T17:31:26.251Z,25.73
2018-10-18T17:33:54.550Z,23.90
2018-10-18T17:36:22.835Z,19.47
2018-10-18T17:38:51.131Z,21.97
2018-10-18T17:41:19.433Z,21.57
2018-10-18T17:43:47.721Z,21.50
2018-10-18T17:46:16.083Z,23.67
2018-10-18T17:48:44.336Z,24.60
2018-10-18T17:51:12.735Z,34.10
2018-10-18T17:53:41.137Z,23.50
2018-10-18T17:56:09.810Z,24.47
2018-10-18T17:58:38.036Z,24.77
2018-10-18T18:01:08.661Z,23.97
2018-10-18T18:03:37.102Z,24.47
2018-10-18T18:06:05.822Z,25.67
2018-10-18T18:08:33.973Z,21.90
2018-10-18T18:11:02.481Z,25.97
2018-10-18T18:13:30.757Z,26.37
2018-10-18T18:15:59.095Z,28.33
2018-10-18T18:18:27.346Z,26.53
2018-10-18T18:20:55.683Z,27.47
2018-10-18T18:23:24.004Z,27.20
2018-10-18T18:25:52.372Z,27.77
2018-10-18T18:28:20.696Z,25.37
2018-10-18T18:30:49.029Z,26.60
2018-10-18T18:33:17.335Z,30.03
2018-10-18T18:35:45.664Z,28.63
2018-10-18T18:38:13.974Z,28.13
2018-10-18T18:40:42.298Z,26.50
2018-10-18T18:43:10.592Z,26.83
2018-10-18T18:45:38.980Z,27.00
2018-10-18T18:48:07.220Z,26.40
2018-10-18T18:50:35.583Z,25.77
2018-10-18T18:53:03.936Z,27.30
2018-10-18T18:55:32.220Z,26.57
2018-10-18T18:58:00.539Z,23.43
2018-10-18T19:00:28.829Z,25.93
2018-10-18T19:02:57.195Z,26.43
2018-10-18T19:05:25.451Z,23.47
2018-10-18T19:07:53.785Z,22.80
2018-10-18T19:10:22.131Z,20.33
2018-10-18T19:12:50.448Z,21.70
2018-10-18T19:15:18.754Z,21.07
2018-10-18T19:17:47.070Z,19.57
2018-10-18T19:20:15.368Z,18.00
2018-10-18T19:22:43.812Z,17.33
2018-10-18T19:25:12.420Z,19.43
2018-10-18T19:27:40.781Z,19.90
2018-10-18T19:30:10.263Z,18.83
2018-10-18T19:32:38.611Z,17.33
2018-10-18T19:35:06.916Z,18.30
2018-10-18T19:37:35.213Z,17.00
2018-10-18T19:40:03.532Z,19.20
2018-10-18T19:42:31.819Z,18.03
2018-10-18T19:45:00.124Z,18.33
2018-10-18T19:47:28.435Z,19.27
2018-10-18T19:49:56.723Z,19.33
2018-10-18T19:52:25.146Z,20.43
2018-10-18T19:54:53.281Z,20.83
2018-10-18T19:57:21.559Z,20.67
2018-10-18T19:59:49.832Z,20.27
2018-10-18T20:02:18.115Z,27.47
2018-10-18T20:04:46.387Z,18.53
2018-10-18T20:07:14.699Z,19.77
2018-10-18T20:09:43.076Z,17.20
2018-10-18T20:12:11.351Z,17.40
2018-10-18T20:14:39.643Z,18.97
2018-10-18T20:17:08.360Z,16.37
2018-10-18T20:19:36.638Z,18.37
2018-10-18T20:22:08.470Z,18.23
2018-10-18T20:24:36.757Z,21.03
2018-10-18T20:27:05.248Z,20.73
2018-10-18T20:29:33.520Z,20.73
2018-10-18T20:32:01.836Z,19.47
2018-10-18T20:34:30.115Z,19.63
2018-10-18T20:36:58.411Z,22.50
2018-10-18T20:39:26.679Z,22.27
2018-10-18T20:41:54.963Z,20.47
2018-10-18T20:44:23.259Z,20.27
2018-10-18T20:46:51.659Z,18.53
2018-10-18T20:49:19.951Z,18.97
2018-10-18T20:51:48.251Z,20.10
2018-10-18T20:54:16.523Z,18.87
2018-10-18T20:56:44.823Z,19.67
2018-10-18T20:59:13.131Z,17.87
2018-10-18T21:01:41.434Z,18.17
2018-10-18T21:04:09.716Z,17.43
2018-10-18T21:06:38.143Z,15.20
2018-10-18T21:09:08.075Z,15.67
2018-10-18T21:11:36.315Z,16.07
2018-10-18T21:14:04.680Z,15.20
2018-10-18T21:16:33.031Z,15.23
2018-10-18T21:19:01.348Z,14.20
2018-10-18T21:21:29.682Z,17.17
2018-10-18T21:23:58.052Z,15.23
2018-10-18T21:26:26.344Z,14.33
2018-10-18T21:28:54.770Z,14.67
2018-10-18T21:31:23.040Z,15.93
2018-10-18T21:33:51.529Z,13.47
2018-10-18T21:36:19.815Z,13.70
2018-10-18T21:38:48.156Z,12.67
2018-10-18T21:41:16.447Z,12.57
2018-10-18T21:43:44.756Z,18.10
2018-10-18T21:46:13.043Z,12.77
2018-10-18T21:48:42.109Z,12.67
2018-10-18T21:51:10.437Z,12.43
2018-10-18T21:53:38.698Z,13.60
2018-10-18T21:56:06.981Z,13.03
2018-10-18T21:58:35.315Z,11.50
2018-10-18T22:01:03.584Z,11.87
2018-10-18T22:03:31.895Z,13.67
2018-10-18T22:06:00.175Z,14.63
2018-10-18T22:08:28.466Z,14.30
2018-10-18T22:10:57.009Z,12.07
2018-10-18T22:13:25.303Z,12.93
2018-10-18T22:15:53.576Z,13.37
2018-10-18T22:18:21.875Z,11.37
2018-10-18T22:20:50.155Z,11.50
2018-10-18T22:23:18.440Z,10.53
2018-10-18T22:25:46.723Z,11.60
2018-10-18T22:28:15.023Z,10.50
2018-10-18T22:30:43.307Z,12.50
2018-10-18T22:33:11.663Z,10.77
2018-10-18T22:35:39.915Z,10.60
2018-10-18T22:38:08.191Z,8.17
2018-10-18T22:40:36.891Z,7.13
2018-10-18T22:43:05.680Z,8.37
2018-10-18T22:45:33.967Z,7.37
2018-10-18T22:48:02.227Z,7.00
2018-10-18T22:50:30.507Z,6.93
2018-10-18T22:52:58.827Z,7.57
2018-10-18T22:55:27.092Z,8.13
2018-10-18T22:57:55.350Z,7.23
2018-10-18T23:00:23.641Z,7.70
2018-10-18T23:02:51.943Z,7.00
2018-10-18T23:05:20.235Z,6.57
2018-10-18T23:07:48.515Z,6.40
2018-10-18T23:10:16.795Z,6.70
2018-10-18T23:12:45.055Z,7.97
2018-10-18T23:15:13.435Z,7.73
2018-10-18T23:17:41.671Z,6.77
2018-10-18T23:20:10.073Z,6.83
2018-10-18T23:22:38.351Z,6.23
2018-10-18T23:25:06.935Z,6.97
2018-10-18T23:27:35.219Z,6.97
2018-10-18T23:30:03.567Z,6.20
2018-10-18T23:32:31.830Z,6.37
2018-10-18T23:35:00.157Z,6.87
2018-10-18T23:37:28.524Z,9.37
2018-10-18T23:39:56.887Z,8.23
2018-10-18T23:42:25.155Z,7.63
2018-10-18T23:44:53.431Z,7.70
2018-10-18T23:47:21.751Z,9.10
2018-10-18T23:49:50.046Z,8.37
2018-10-18T23:52:18.326Z,9.03
2018-10-18T23:54:46.602Z,7.63
2018-10-18T23:57:14.929Z,8.67
2018-10-18T23:59:43.184Z,8.70
